sensor_id;sensor_type;location;lat;lon;timestamp;P1;durP1;ratioP1;P2;durP2;ratioP2
48945;SDS011;34999;50.940;3.998;2022-08-19T00:01:45;63.97;;;39.07;;
48945;SDS011;34999;50.940;3.998;2022-08-19T00:04:19;69.17;;;39.23;;
48945;SDS011;34999;50.940;3.998;2022-08-19T00:09:56;66.90;;;40.10;;
48945;SDS011;34999;50.940;3.998;2022-08-19T00:12:26;67.37;;;40.17;;
48945;SDS011;34999;50.940;3.998;2022-08-19T00:14:55;70.03;;;41.53;;
48945;SDS011;34999;50.940;3.998;2022-08-19T00:17:24;71.90;;;41.50;;
48945;SDS011;34999;50.940;3.998;2022-08-19T00:19:52;75.00;;;41.27;;
48945;SDS011;34999;50.940;3.998;2022-08-19T00:22:21;72.23;;;41.77;;
48945;SDS011;34999;50.940;3.998;2022-08-19T00:24:50;76.37;;;42.10;;
48945;SDS011;34999;50.940;3.998;2022-08-19T00:27:24;68.47;;;41.20;;
48945;SDS011;34999;50.940;3.998;2022-08-19T00:29:53;71.03;;;41.93;;
48945;SDS011;34999;50.940;3.998;2022-08-19T00:32:21;72.27;;;40.67;;
48945;SDS011;34999;50.940;3.998;2022-08-19T00:34:52;67.60;;;40.80;;
48945;SDS011;34999;50.940;3.998;2022-08-19T00:37:21;71.37;;;42.37;;
48945;SDS011;34999;50.940;3.998;2022-08-19T00:39:53;70.03;;;39.27;;
48945;SDS011;34999;50.940;3.998;2022-08-19T00:42:24;73.17;;;40.43;;
48945;SDS011;34999;50.940;3.998;2022-08-19T00:44:54;73.73;;;41.83;;
48945;SDS011;34999;50.940;3.998;2022-08-19T00:47:23;67.50;;;38.70;;
48945;SDS011;34999;50.940;3.998;2022-08-19T00:49:56;67.93;;;39.10;;
48945;SDS011;34999;50.940;3.998;2022-08-19T00:52:28;70.43;;;40.23;;
48945;SDS011;34999;50.940;3.998;2022-08-19T00:55:03;77.00;;;42.70;;
48945;SDS011;34999;50.940;3.998;2022-08-19T00:57:42;80.43;;;43.23;;
48945;SDS011;34999;50.940;3.998;2022-08-19T01:00:16;77.33;;;41.93;;
48945;SDS011;34999;50.940;3.998;2022-08-19T01:02:52;64.10;;;38.00;;
48945;SDS011;34999;50.940;3.998;2022-08-19T01:05:21;63.37;;;37.73;;
48945;SDS011;34999;50.940;3.998;2022-08-19T01:21:09;55.00;;;31.53;;
48945;SDS011;34999;50.940;3.998;2022-08-19T01:23:44;51.30;;;31.23;;
48945;SDS011;34999;50.940;3.998;2022-08-19T01:26:15;55.90;;;32.97;;
48945;SDS011;34999;50.940;3.998;2022-08-19T01:28:50;51.97;;;31.77;;
48945;SDS011;34999;50.940;3.998;2022-08-19T01:31:27;54.50;;;32.17;;
48945;SDS011;34999;50.940;3.998;2022-08-19T01:33:59;50.23;;;29.33;;
48945;SDS011;34999;50.940;3.998;2022-08-19T01:36:35;43.83;;;27.33;;
48945;SDS011;34999;50.940;3.998;2022-08-19T01:39:10;40.63;;;25.53;;
48945;SDS011;34999;50.940;3.998;2022-08-19T01:41:40;42.33;;;25.03;;
48945;SDS011;34999;50.940;3.998;2022-08-19T01:44:09;40.03;;;25.43;;
48945;SDS011;34999;50.940;3.998;2022-08-19T01:46:45;34.33;;;22.67;;
48945;SDS011;34999;50.940;3.998;2022-08-19T01:49:16;38.47;;;23.27;;
48945;SDS011;34999;50.940;3.998;2022-08-19T01:51:46;40.93;;;23.70;;
48945;SDS011;34999;50.940;3.998;2022-08-19T01:54:17;41.50;;;24.37;;
48945;SDS011;34999;50.940;3.998;2022-08-19T01:56:54;35.67;;;24.13;;
48945;SDS011;34999;50.940;3.998;2022-08-19T01:59:30;37.83;;;23.57;;
48945;SDS011;34999;50.940;3.998;2022-08-19T02:02:00;35.73;;;23.07;;
48945;SDS011;34999;50.940;3.998;2022-08-19T02:04:29;38.57;;;24.10;;
48945;SDS011;34999;50.940;3.998;2022-08-19T02:06:57;37.27;;;22.77;;
48945;SDS011;34999;50.940;3.998;2022-08-19T02:09:27;38.97;;;23.47;;
48945;SDS011;34999;50.940;3.998;2022-08-19T02:11:56;35.87;;;22.57;;
48945;SDS011;34999;50.940;3.998;2022-08-19T02:14:24;39.47;;;23.37;;
48945;SDS011;34999;50.940;3.998;2022-08-19T02:16:53;40.30;;;22.20;;
48945;SDS011;34999;50.940;3.998;2022-08-19T02:19:25;39.03;;;22.07;;
48945;SDS011;34999;50.940;3.998;2022-08-19T02:21:54;41.20;;;22.47;;
48945;SDS011;34999;50.940;3.998;2022-08-19T02:24:23;42.57;;;23.33;;
48945;SDS011;34999;50.940;3.998;2022-08-19T02:26:53;37.13;;;21.87;;
48945;SDS011;34999;50.940;3.998;2022-08-19T02:29:23;33.50;;;20.27;;
48945;SDS011;34999;50.940;3.998;2022-08-19T02:31:51;39.80;;;21.20;;
48945;SDS011;34999;50.940;3.998;2022-08-19T02:34:19;39.00;;;21.57;;
48945;SDS011;34999;50.940;3.998;2022-08-19T02:36:51;36.60;;;21.63;;
48945;SDS011;34999;50.940;3.998;2022-08-19T02:39:19;40.77;;;21.73;;
48945;SDS011;34999;50.940;3.998;2022-08-19T02:41:49;40.90;;;23.10;;
48945;SDS011;34999;50.940;3.998;2022-08-19T02:44:20;41.30;;;22.20;;
48945;SDS011;34999;50.940;3.998;2022-08-19T02:46:56;36.63;;;21.50;;
48945;SDS011;34999;50.940;3.998;2022-08-19T02:49:24;36.37;;;20.97;;
48945;SDS011;34999;50.940;3.998;2022-08-19T02:51:53;38.93;;;22.20;;
48945;SDS011;34999;50.940;3.998;2022-08-19T02:54:21;37.93;;;22.60;;
48945;SDS011;34999;50.940;3.998;2022-08-19T02:56:50;35.77;;;22.33;;
48945;SDS011;34999;50.940;3.998;2022-08-19T02:59:20;36.60;;;21.87;;
48945;SDS011;34999;50.940;3.998;2022-08-19T03:01:49;38.50;;;21.03;;
48945;SDS011;34999;50.940;3.998;2022-08-19T03:04:21;39.07;;;21.30;;
48945;SDS011;34999;50.940;3.998;2022-08-19T03:06:49;40.83;;;22.70;;
48945;SDS011;34999;50.940;3.998;2022-08-19T03:09:26;38.40;;;19.77;;
48945;SDS011;34999;50.940;3.998;2022-08-19T03:11:56;38.57;;;20.03;;
48945;SDS011;34999;50.940;3.998;2022-08-19T03:14:31;37.63;;;21.10;;
48945;SDS011;34999;50.940;3.998;2022-08-19T03:17:00;40.10;;;20.60;;
48945;SDS011;34999;50.940;3.998;2022-08-19T03:19:33;37.07;;;20.30;;
48945;SDS011;34999;50.940;3.998;2022-08-19T03:22:02;33.60;;;19.37;;
48945;SDS011;34999;50.940;3.998;2022-08-19T03:24:31;37.27;;;20.17;;
48945;SDS011;34999;50.940;3.998;2022-08-19T03:27:00;33.43;;;18.70;;
48945;SDS011;34999;50.940;3.998;2022-08-19T03:29:36;34.73;;;19.17;;
48945;SDS011;34999;50.940;3.998;2022-08-19T03:32:10;34.70;;;18.80;;
48945;SDS011;34999;50.940;3.998;2022-08-19T03:34:58;30.63;;;17.63;;
48945;SDS011;34999;50.940;3.998;2022-08-19T03:37:30;30.83;;;18.03;;
48945;SDS011;34999;50.940;3.998;2022-08-19T03:39:58;33.43;;;18.30;;
48945;SDS011;34999;50.940;3.998;2022-08-19T03:42:30;27.93;;;17.20;;
48945;SDS011;34999;50.940;3.998;2022-08-19T03:45:17;35.83;;;18.50;;
48945;SDS011;34999;50.940;3.998;2022-08-19T03:47:45;34.00;;;18.13;;
48945;SDS011;34999;50.940;3.998;2022-08-19T03:50:14;32.97;;;17.43;;
48945;SDS011;34999;50.940;3.998;2022-08-19T03:52:47;28.57;;;16.57;;
48945;SDS011;34999;50.940;3.998;2022-08-19T03:55:21;29.03;;;17.73;;
48945;SDS011;34999;50.940;3.998;2022-08-19T03:57:49;30.43;;;17.13;;
48945;SDS011;34999;50.940;3.998;2022-08-19T04:00:26;30.70;;;17.30;;
48945;SDS011;34999;50.940;3.998;2022-08-19T04:03:28;33.63;;;16.60;;
48945;SDS011;34999;50.940;3.998;2022-08-19T04:05:56;31.60;;;18.13;;
48945;SDS011;34999;50.940;3.998;2022-08-19T04:08:27;30.97;;;17.17;;
48945;SDS011;34999;50.940;3.998;2022-08-19T04:10:56;28.47;;;16.90;;
48945;SDS011;34999;50.940;3.998;2022-08-19T04:13:25;28.13;;;17.13;;
48945;SDS011;34999;50.940;3.998;2022-08-19T04:15:55;35.10;;;16.87;;
48945;SDS011;34999;50.940;3.998;2022-08-19T04:18:25;32.20;;;15.73;;
48945;SDS011;34999;50.940;3.998;2022-08-19T04:21:01;29.73;;;17.07;;
48945;SDS011;34999;50.940;3.998;2022-08-19T04:23:31;33.07;;;17.53;;
48945;SDS011;34999;50.940;3.998;2022-08-19T04:26:00;33.63;;;18.20;;
48945;SDS011;34999;50.940;3.998;2022-08-19T04:28:30;28.40;;;15.97;;
48945;SDS011;34999;50.940;3.998;2022-08-19T04:31:00;33.20;;;18.00;;
48945;SDS011;34999;50.940;3.998;2022-08-19T04:33:29;34.07;;;18.10;;
48945;SDS011;34999;50.940;3.998;2022-08-19T04:35:57;31.50;;;18.50;;
48945;SDS011;34999;50.940;3.998;2022-08-19T04:38:26;30.50;;;19.03;;
48945;SDS011;34999;50.940;3.998;2022-08-19T04:40:55;35.80;;;19.47;;
48945;SDS011;34999;50.940;3.998;2022-08-19T04:43:40;27.70;;;18.10;;
48945;SDS011;34999;50.940;3.998;2022-08-19T04:46:13;35.53;;;18.80;;
48945;SDS011;34999;50.940;3.998;2022-08-19T04:49:04;37.30;;;18.50;;
48945;SDS011;34999;50.940;3.998;2022-08-19T04:51:39;32.03;;;17.87;;
48945;SDS011;34999;50.940;3.998;2022-08-19T04:54:10;31.70;;;18.87;;
48945;SDS011;34999;50.940;3.998;2022-08-19T04:57:01;35.47;;;17.97;;
48945;SDS011;34999;50.940;3.998;2022-08-19T04:59:33;27.07;;;16.57;;
48945;SDS011;34999;50.940;3.998;2022-08-19T05:02:04;31.10;;;18.43;;
48945;SDS011;34999;50.940;3.998;2022-08-19T05:04:34;34.77;;;17.80;;
48945;SDS011;34999;50.940;3.998;2022-08-19T05:07:06;38.73;;;18.60;;
48945;SDS011;34999;50.940;3.998;2022-08-19T05:09:36;30.27;;;18.10;;
48945;SDS011;34999;50.940;3.998;2022-08-19T05:12:24;32.80;;;19.50;;
48945;SDS011;34999;50.940;3.998;2022-08-19T05:14:55;30.93;;;18.00;;
48945;SDS011;34999;50.940;3.998;2022-08-19T05:17:27;31.97;;;18.37;;
48945;SDS011;34999;50.940;3.998;2022-08-19T05:20:03;29.57;;;17.77;;
48945;SDS011;34999;50.940;3.998;2022-08-19T05:22:53;34.53;;;18.20;;
48945;SDS011;34999;50.940;3.998;2022-08-19T05:25:21;28.90;;;17.27;;
48945;SDS011;34999;50.940;3.998;2022-08-19T05:27:52;30.53;;;17.20;;
48945;SDS011;34999;50.940;3.998;2022-08-19T05:30:20;29.83;;;17.13;;
48945;SDS011;34999;50.940;3.998;2022-08-19T05:33:00;33.43;;;16.07;;
48945;SDS011;34999;50.940;3.998;2022-08-19T05:35:29;30.87;;;15.80;;
48945;SDS011;34999;50.940;3.998;2022-08-19T05:38:00;32.57;;;15.73;;
48945;SDS011;34999;50.940;3.998;2022-08-19T05:40:29;27.17;;;15.40;;
48945;SDS011;34999;50.940;3.998;2022-08-19T05:42:59;28.57;;;16.37;;
48945;SDS011;34999;50.940;3.998;2022-08-19T05:45:30;25.30;;;15.87;;
48945;SDS011;34999;50.940;3.998;2022-08-19T05:47:58;27.23;;;16.20;;
48945;SDS011;34999;50.940;3.998;2022-08-19T05:50:31;24.00;;;15.63;;
48945;SDS011;34999;50.940;3.998;2022-08-19T05:53:00;26.23;;;15.67;;
48945;SDS011;34999;50.940;3.998;2022-08-19T05:58:17;25.07;;;14.77;;
48945;SDS011;34999;50.940;3.998;2022-08-19T06:00:52;25.70;;;15.37;;
48945;SDS011;34999;50.940;3.998;2022-08-19T06:03:22;22.37;;;14.20;;
48945;SDS011;34999;50.940;3.998;2022-08-19T06:05:53;25.03;;;13.73;;
48945;SDS011;34999;50.940;3.998;2022-08-19T06:08:21;23.50;;;14.20;;
48945;SDS011;34999;50.940;3.998;2022-08-19T06:11:11;23.63;;;13.70;;
48945;SDS011;34999;50.940;3.998;2022-08-19T06:13:42;25.23;;;13.47;;
48945;SDS011;34999;50.940;3.998;2022-08-19T06:16:13;22.43;;;13.83;;
48945;SDS011;34999;50.940;3.998;2022-08-19T06:18:47;25.73;;;13.60;;
48945;SDS011;34999;50.940;3.998;2022-08-19T06:21:18;20.83;;;12.80;;
48945;SDS011;34999;50.940;3.998;2022-08-19T06:23:47;22.33;;;13.03;;
48945;SDS011;34999;50.940;3.998;2022-08-19T06:26:18;18.63;;;12.37;;
48945;SDS011;34999;50.940;3.998;2022-08-19T06:28:48;21.87;;;13.03;;
48945;SDS011;34999;50.940;3.998;2022-08-19T06:31:17;25.47;;;12.43;;
48945;SDS011;34999;50.940;3.998;2022-08-19T06:33:49;19.97;;;12.17;;
48945;SDS011;34999;50.940;3.998;2022-08-19T06:36:20;19.47;;;11.40;;
48945;SDS011;34999;50.940;3.998;2022-08-19T06:38:58;19.43;;;10.33;;
48945;SDS011;34999;50.940;3.998;2022-08-19T06:41:29;20.30;;;11.20;;
48945;SDS011;34999;50.940;3.998;2022-08-19T06:43:58;21.27;;;11.00;;
48945;SDS011;34999;50.940;3.998;2022-08-19T06:46:28;14.10;;;9.83;;
48945;SDS011;34999;50.940;3.998;2022-08-19T06:49:03;16.53;;;9.73;;
48945;SDS011;34999;50.940;3.998;2022-08-19T06:56:03;10.67;;;9.03;;
48945;SDS011;34999;50.940;3.998;2022-08-19T06:58:31;18.90;;;9.43;;
48945;SDS011;34999;50.940;3.998;2022-08-19T07:01:09;13.27;;;8.37;;
48945;SDS011;34999;50.940;3.998;2022-08-19T07:03:38;11.80;;;8.67;;
48945;SDS011;34999;50.940;3.998;2022-08-19T07:06:10;9.70;;;7.67;;
48945;SDS011;34999;50.940;3.998;2022-08-19T07:09:02;12.87;;;7.97;;
48945;SDS011;34999;50.940;3.998;2022-08-19T07:11:32;14.37;;;7.40;;
48945;SDS011;34999;50.940;3.998;2022-08-19T07:14:01;9.60;;;6.93;;
48945;SDS011;34999;50.940;3.998;2022-08-19T07:16:44;11.33;;;7.17;;
48945;SDS011;34999;50.940;3.998;2022-08-19T07:19:14;8.10;;;7.17;;
48945;SDS011;34999;50.940;3.998;2022-08-19T07:21:46;14.50;;;7.77;;
48945;SDS011;34999;50.940;3.998;2022-08-19T07:24:20;14.77;;;7.57;;
48945;SDS011;34999;50.940;3.998;2022-08-19T07:26:51;10.57;;;7.50;;
48945;SDS011;34999;50.940;3.998;2022-08-19T07:29:21;10.47;;;7.67;;
48945;SDS011;34999;50.940;3.998;2022-08-19T07:31:54;10.03;;;7.73;;
48945;SDS011;34999;50.940;3.998;2022-08-19T07:34:27;12.33;;;7.83;;
48945;SDS011;34999;50.940;3.998;2022-08-19T07:36:58;11.60;;;7.90;;
48945;SDS011;34999;50.940;3.998;2022-08-19T07:39:28;11.97;;;7.47;;
48945;SDS011;34999;50.940;3.998;2022-08-19T07:42:00;9.50;;;7.20;;
48945;SDS011;34999;50.940;3.998;2022-08-19T07:44:32;13.03;;;7.87;;
48945;SDS011;34999;50.940;3.998;2022-08-19T07:47:04;15.57;;;7.97;;
48945;SDS011;34999;50.940;3.998;2022-08-19T07:49:53;11.93;;;8.23;;
48945;SDS011;34999;50.940;3.998;2022-08-19T07:52:23;12.57;;;7.63;;
48945;SDS011;34999;50.940;3.998;2022-08-19T07:54:51;12.13;;;7.53;;
48945;SDS011;34999;50.940;3.998;2022-08-19T07:57:19;17.73;;;7.60;;
48945;SDS011;34999;50.940;3.998;2022-08-19T07:59:48;13.77;;;7.60;;
48945;SDS011;34999;50.940;3.998;2022-08-19T08:02:16;10.27;;;7.40;;
48945;SDS011;34999;50.940;3.998;2022-08-19T08:04:45;12.53;;;8.30;;
48945;SDS011;34999;50.940;3.998;2022-08-19T08:07:32;17.90;;;8.77;;
48945;SDS011;34999;50.940;3.998;2022-08-19T08:10:17;13.37;;;7.67;;
48945;SDS011;34999;50.940;3.998;2022-08-19T08:12:50;12.00;;;7.60;;
48945;SDS011;34999;50.940;3.998;2022-08-19T08:15:37;13.83;;;8.17;;
48945;SDS011;34999;50.940;3.998;2022-08-19T08:18:09;13.30;;;7.73;;
48945;SDS011;34999;50.940;3.998;2022-08-19T08:20:40;12.03;;;8.07;;
48945;SDS011;34999;50.940;3.998;2022-08-19T08:26:43;9.97;;;7.13;;
48945;SDS011;34999;50.940;3.998;2022-08-19T08:29:27;10.00;;;6.60;;
48945;SDS011;34999;50.940;3.998;2022-08-19T08:32:01;12.17;;;7.50;;
48945;SDS011;34999;50.940;3.998;2022-08-19T08:34:40;11.63;;;7.23;;
48945;SDS011;34999;50.940;3.998;2022-08-19T08:37:10;9.67;;;6.93;;
48945;SDS011;34999;50.940;3.998;2022-08-19T08:39:42;13.23;;;7.63;;
48945;SDS011;34999;50.940;3.998;2022-08-19T08:42:13;12.80;;;7.37;;
48945;SDS011;34999;50.940;3.998;2022-08-19T08:44:48;12.30;;;7.07;;
48945;SDS011;34999;50.940;3.998;2022-08-19T08:47:22;11.23;;;6.80;;
48945;SDS011;34999;50.940;3.998;2022-08-19T08:50:00;7.63;;;6.27;;
48945;SDS011;34999;50.940;3.998;2022-08-19T08:52:33;14.30;;;6.87;;
48945;SDS011;34999;50.940;3.998;2022-08-19T08:55:06;11.70;;;6.30;;
48945;SDS011;34999;50.940;3.998;2022-08-19T08:57:42;8.33;;;6.50;;
48945;SDS011;34999;50.940;3.998;2022-08-19T09:00:19;11.90;;;6.20;;
48945;SDS011;34999;50.940;3.998;2022-08-19T09:02:52;6.60;;;5.77;;
48945;SDS011;34999;50.940;3.998;2022-08-19T09:05:22;9.10;;;5.57;;
48945;SDS011;34999;50.940;3.998;2022-08-19T09:08:16;8.50;;;5.83;;
48945;SDS011;34999;50.940;3.998;2022-08-19T09:10:55;12.67;;;6.07;;
48945;SDS011;34999;50.940;3.998;2022-08-19T09:13:32;6.80;;;5.17;;
48945;SDS011;34999;50.940;3.998;2022-08-19T09:16:11;6.27;;;5.13;;
48945;SDS011;34999;50.940;3.998;2022-08-19T09:18:43;6.43;;;5.60;;
48945;SDS011;34999;50.940;3.998;2022-08-19T09:21:13;8.63;;;5.47;;
48945;SDS011;34999;50.940;3.998;2022-08-19T09:23:42;8.53;;;5.47;;
48945;SDS011;34999;50.940;3.998;2022-08-19T09:26:20;9.17;;;5.73;;
48945;SDS011;34999;50.940;3.998;2022-08-19T09:29:12;7.90;;;5.57;;
48945;SDS011;34999;50.940;3.998;2022-08-19T09:31:43;10.73;;;5.77;;
48945;SDS011;34999;50.940;3.998;2022-08-19T09:34:12;8.80;;;5.37;;
48945;SDS011;34999;50.940;3.998;2022-08-19T09:36:47;6.13;;;5.27;;
48945;SDS011;34999;50.940;3.998;2022-08-19T09:39:16;6.40;;;5.73;;
48945;SDS011;34999;50.940;3.998;2022-08-19T09:41:47;9.13;;;5.80;;
48945;SDS011;34999;50.940;3.998;2022-08-19T09:44:18;7.77;;;5.33;;
48945;SDS011;34999;50.940;3.998;2022-08-19T09:46:48;6.27;;;5.30;;
48945;SDS011;34999;50.940;3.998;2022-08-19T09:49:18;8.20;;;5.43;;
48945;SDS011;34999;50.940;3.998;2022-08-19T09:51:50;7.87;;;6.17;;
48945;SDS011;34999;50.940;3.998;2022-08-19T09:54:23;7.03;;;5.37;;
48945;SDS011;34999;50.940;3.998;2022-08-19T09:56:52;7.17;;;5.83;;
48945;SDS011;34999;50.940;3.998;2022-08-19T09:59:22;8.33;;;5.50;;
48945;SDS011;34999;50.940;3.998;2022-08-19T10:01:51;6.20;;;5.00;;
48945;SDS011;34999;50.940;3.998;2022-08-19T10:05:06;7.43;;;5.63;;
48945;SDS011;34999;50.940;3.998;2022-08-19T10:07:54;7.83;;;6.03;;
48945;SDS011;34999;50.940;3.998;2022-08-19T10:10:23;6.03;;;5.37;;
48945;SDS011;34999;50.940;3.998;2022-08-19T10:12:52;6.10;;;5.50;;
48945;SDS011;34999;50.940;3.998;2022-08-19T10:15:23;8.53;;;6.20;;
48945;SDS011;34999;50.940;3.998;2022-08-19T10:17:55;7.00;;;5.93;;
48945;SDS011;34999;50.940;3.998;2022-08-19T10:20:26;8.10;;;6.10;;
48945;SDS011;34999;50.940;3.998;2022-08-19T10:22:56;9.30;;;6.10;;
48945;SDS011;34999;50.940;3.998;2022-08-19T10:25:27;9.30;;;5.87;;
48945;SDS011;34999;50.940;3.998;2022-08-19T10:27:56;7.13;;;5.47;;
48945;SDS011;34999;50.940;3.998;2022-08-19T10:30:26;6.90;;;5.53;;
48945;SDS011;34999;50.940;3.998;2022-08-19T10:32:55;7.83;;;5.30;;
48945;SDS011;34999;50.940;3.998;2022-08-19T10:35:24;5.83;;;5.33;;
48945;SDS011;34999;50.940;3.998;2022-08-19T10:38:08;6.77;;;5.07;;
48945;SDS011;34999;50.940;3.998;2022-08-19T10:40:39;5.83;;;5.23;;
48945;SDS011;34999;50.940;3.998;2022-08-19T10:43:08;6.83;;;5.60;;
48945;SDS011;34999;50.940;3.998;2022-08-19T10:45:38;7.73;;;5.50;;
48945;SDS011;34999;50.940;3.998;2022-08-19T10:48:21;8.00;;;6.10;;
48945;SDS011;34999;50.940;3.998;2022-08-19T10:50:50;6.40;;;5.73;;
48945;SDS011;34999;50.940;3.998;2022-08-19T10:53:33;6.30;;;5.70;;
48945;SDS011;34999;50.940;3.998;2022-08-19T11:00:52;6.33;;;5.37;;
48945;SDS011;34999;50.940;3.998;2022-08-19T11:03:28;7.10;;;5.27;;
48945;SDS011;34999;50.940;3.998;2022-08-19T11:07:04;5.83;;;5.07;;
48945;SDS011;34999;50.940;3.998;2022-08-19T11:13:30;4.57;;;4.23;;
48945;SDS011;34999;50.940;3.998;2022-08-19T11:21:17;4.37;;;3.97;;
48945;SDS011;34999;50.940;3.998;2022-08-19T11:24:22;6.80;;;4.10;;
48945;SDS011;34999;50.940;3.998;2022-08-19T11:26:54;4.87;;;4.40;;
48945;SDS011;34999;50.940;3.998;2022-08-19T11:29:29;4.53;;;4.13;;
48945;SDS011;34999;50.940;3.998;2022-08-19T11:31:58;5.07;;;4.50;;
48945;SDS011;34999;50.940;3.998;2022-08-19T11:34:28;4.90;;;4.50;;
48945;SDS011;34999;50.940;3.998;2022-08-19T11:36:58;7.13;;;5.83;;
48945;SDS011;34999;50.940;3.998;2022-08-19T11:39:31;20.63;;;6.50;;
48945;SDS011;34999;50.940;3.998;2022-08-19T11:42:04;6.53;;;5.93;;
48945;SDS011;34999;50.940;3.998;2022-08-19T11:44:54;7.20;;;6.50;;
48945;SDS011;34999;50.940;3.998;2022-08-19T11:47:23;7.40;;;6.67;;
48945;SDS011;34999;50.940;3.998;2022-08-19T11:49:52;6.60;;;5.80;;
48945;SDS011;34999;50.940;3.998;2022-08-19T11:52:22;8.50;;;7.67;;
48945;SDS011;34999;50.940;3.998;2022-08-19T11:54:52;8.23;;;7.47;;
48945;SDS011;34999;50.940;3.998;2022-08-19T11:57:20;8.53;;;7.43;;
48945;SDS011;34999;50.940;3.998;2022-08-19T11:59:49;6.90;;;6.30;;
48945;SDS011;34999;50.940;3.998;2022-08-19T12:02:19;7.50;;;6.80;;
48945;SDS011;34999;50.940;3.998;2022-08-19T12:04:48;8.20;;;6.50;;
48945;SDS011;34999;50.940;3.998;2022-08-19T12:07:25;7.07;;;5.93;;
48945;SDS011;34999;50.940;3.998;2022-08-19T12:10:03;6.60;;;5.90;;
48945;SDS011;34999;50.940;3.998;2022-08-19T12:12:34;6.13;;;5.53;;
48945;SDS011;34999;50.940;3.998;2022-08-19T12:16:00;4.97;;;4.57;;
48945;SDS011;34999;50.940;3.998;2022-08-19T12:18:39;5.00;;;4.67;;
48945;SDS011;34999;50.940;3.998;2022-08-19T12:21:09;5.20;;;4.63;;
48945;SDS011;34999;50.940;3.998;2022-08-19T12:23:41;4.10;;;3.80;;
48945;SDS011;34999;50.940;3.998;2022-08-19T12:26:11;5.20;;;4.87;;
48945;SDS011;34999;50.940;3.998;2022-08-19T12:28:40;4.63;;;4.23;;
48945;SDS011;34999;50.940;3.998;2022-08-19T12:31:08;5.57;;;5.17;;
48945;SDS011;34999;50.940;3.998;2022-08-19T12:33:38;4.90;;;4.60;;
48945;SDS011;34999;50.940;3.998;2022-08-19T12:36:08;6.27;;;5.30;;
48945;SDS011;34999;50.940;3.998;2022-08-19T12:38:38;5.00;;;4.70;;
48945;SDS011;34999;50.940;3.998;2022-08-19T12:41:11;5.70;;;5.20;;
48945;SDS011;34999;50.940;3.998;2022-08-19T12:43:41;5.17;;;4.83;;
48945;SDS011;34999;50.940;3.998;2022-08-19T12:46:10;6.13;;;5.53;;
48945;SDS011;34999;50.940;3.998;2022-08-19T12:48:38;4.67;;;4.37;;
48945;SDS011;34999;50.940;3.998;2022-08-19T12:51:12;4.90;;;4.50;;
48945;SDS011;34999;50.940;3.998;2022-08-19T12:53:43;5.30;;;4.80;;
48945;SDS011;34999;50.940;3.998;2022-08-19T12:56:12;5.73;;;4.80;;
48945;SDS011;34999;50.940;3.998;2022-08-19T12:58:44;4.57;;;4.20;;
48945;SDS011;34999;50.940;3.998;2022-08-19T13:01:15;5.80;;;4.33;;
48945;SDS011;34999;50.940;3.998;2022-08-19T13:03:48;4.83;;;4.40;;
48945;SDS011;34999;50.940;3.998;2022-08-19T13:06:18;4.50;;;4.20;;
48945;SDS011;34999;50.940;3.998;2022-08-19T13:08:48;3.60;;;3.40;;
48945;SDS011;34999;50.940;3.998;2022-08-19T13:11:18;3.10;;;2.80;;
48945;SDS011;34999;50.940;3.998;2022-08-19T13:13:51;3.20;;;2.90;;
48945;SDS011;34999;50.940;3.998;2022-08-19T13:16:21;2.33;;;2.20;;
48945;SDS011;34999;50.940;3.998;2022-08-19T13:18:50;3.10;;;2.30;;
48945;SDS011;34999;50.940;3.998;2022-08-19T13:21:19;2.40;;;2.30;;
48945;SDS011;34999;50.940;3.998;2022-08-19T13:23:51;2.43;;;2.30;;
48945;SDS011;34999;50.940;3.998;2022-08-19T13:26:20;2.90;;;2.50;;
48945;SDS011;34999;50.940;3.998;2022-08-19T13:28:49;1.80;;;1.70;;
48945;SDS011;34999;50.940;3.998;2022-08-19T13:31:40;2.10;;;1.90;;
48945;SDS011;34999;50.940;3.998;2022-08-19T13:34:29;2.37;;;2.20;;
48945;SDS011;34999;50.940;3.998;2022-08-19T13:37:01;2.40;;;1.83;;
48945;SDS011;34999;50.940;3.998;2022-08-19T13:39:32;2.17;;;2.00;;
48945;SDS011;34999;50.940;3.998;2022-08-19T13:42:01;2.73;;;2.50;;
48945;SDS011;34999;50.940;3.998;2022-08-19T13:44:31;2.40;;;2.20;;
48945;SDS011;34999;50.940;3.998;2022-08-19T13:47:00;3.27;;;2.70;;
48945;SDS011;34999;50.940;3.998;2022-08-19T13:49:33;5.53;;;3.20;;
48945;SDS011;34999;50.940;3.998;2022-08-19T13:52:03;3.23;;;3.03;;
48945;SDS011;34999;50.940;3.998;2022-08-19T13:54:33;3.70;;;3.50;;
48945;SDS011;34999;50.940;3.998;2022-08-19T13:57:02;4.93;;;3.87;;
48945;SDS011;34999;50.940;3.998;2022-08-19T13:59:30;3.93;;;3.73;;
48945;SDS011;34999;50.940;3.998;2022-08-19T14:01:59;4.43;;;4.00;;
48945;SDS011;34999;50.940;3.998;2022-08-19T14:04:28;4.70;;;4.27;;
48945;SDS011;34999;50.940;3.998;2022-08-19T14:06:56;5.77;;;4.03;;
48945;SDS011;34999;50.940;3.998;2022-08-19T14:09:25;3.77;;;3.47;;
48945;SDS011;34999;50.940;3.998;2022-08-19T14:11:54;3.40;;;3.10;;
48945;SDS011;34999;50.940;3.998;2022-08-19T14:14:25;3.53;;;3.23;;
48945;SDS011;34999;50.940;3.998;2022-08-19T14:16:55;2.80;;;2.60;;
48945;SDS011;34999;50.940;3.998;2022-08-19T14:19:23;2.07;;;1.97;;
48945;SDS011;34999;50.940;3.998;2022-08-19T14:21:55;1.70;;;1.60;;
48945;SDS011;34999;50.940;3.998;2022-08-19T14:24:24;1.53;;;1.43;;
48945;SDS011;34999;50.940;3.998;2022-08-19T14:26:52;1.93;;;1.83;;
48945;SDS011;34999;50.940;3.998;2022-08-19T14:29:22;5.57;;;1.70;;
48945;SDS011;34999;50.940;3.998;2022-08-19T14:31:51;2.10;;;1.77;;
48945;SDS011;34999;50.940;3.998;2022-08-19T14:34:19;3.60;;;2.10;;
48945;SDS011;34999;50.940;3.998;2022-08-19T14:36:48;2.30;;;2.20;;
48945;SDS011;34999;50.940;3.998;2022-08-19T14:39:16;1.90;;;1.80;;
48945;SDS011;34999;50.940;3.998;2022-08-19T14:41:44;3.13;;;1.87;;
48945;SDS011;34999;50.940;3.998;2022-08-19T14:44:14;1.70;;;1.60;;
48945;SDS011;34999;50.940;3.998;2022-08-19T14:46:43;2.27;;;2.17;;
48945;SDS011;34999;50.940;3.998;2022-08-19T14:49:15;2.83;;;2.10;;
48945;SDS011;34999;50.940;3.998;2022-08-19T14:51:44;2.60;;;2.40;;
48945;SDS011;34999;50.940;3.998;2022-08-19T14:54:13;4.23;;;2.67;;
48945;SDS011;34999;50.940;3.998;2022-08-19T14:56:41;3.40;;;3.00;;
48945;SDS011;34999;50.940;3.998;2022-08-19T14:59:10;2.50;;;2.40;;
48945;SDS011;34999;50.940;3.998;2022-08-19T15:01:40;3.03;;;2.70;;
48945;SDS011;34999;50.940;3.998;2022-08-19T15:04:10;2.67;;;2.47;;
48945;SDS011;34999;50.940;3.998;2022-08-19T15:06:38;3.70;;;2.70;;
48945;SDS011;34999;50.940;3.998;2022-08-19T15:09:08;3.10;;;2.80;;
48945;SDS011;34999;50.940;3.998;2022-08-19T15:11:37;3.03;;;2.37;;
48945;SDS011;34999;50.940;3.998;2022-08-19T15:14:06;4.33;;;3.00;;
48945;SDS011;34999;50.940;3.998;2022-08-19T15:16:36;7.70;;;2.80;;
48945;SDS011;34999;50.940;3.998;2022-08-19T15:19:09;2.47;;;2.27;;
48945;SDS011;34999;50.940;3.998;2022-08-19T15:21:38;3.50;;;2.83;;
48945;SDS011;34999;50.940;3.998;2022-08-19T15:24:06;2.73;;;2.53;;
48945;SDS011;34999;50.940;3.998;2022-08-19T15:26:35;2.87;;;2.50;;
48945;SDS011;34999;50.940;3.998;2022-08-19T15:29:04;2.50;;;2.30;;
48945;SDS011;34999;50.940;3.998;2022-08-19T15:31:32;2.63;;;2.53;;
48945;SDS011;34999;50.940;3.998;2022-08-19T15:34:04;2.60;;;2.40;;
48945;SDS011;34999;50.940;3.998;2022-08-19T15:36:34;4.70;;;2.60;;
48945;SDS011;34999;50.940;3.998;2022-08-19T15:39:03;2.70;;;2.50;;
48945;SDS011;34999;50.940;3.998;2022-08-19T15:41:32;3.13;;;2.80;;
48945;SDS011;34999;50.940;3.998;2022-08-19T15:44:04;5.10;;;2.83;;
48945;SDS011;34999;50.940;3.998;2022-08-19T15:46:35;6.10;;;2.60;;
48945;SDS011;34999;50.940;3.998;2022-08-19T15:49:05;3.17;;;2.23;;